sensor_id;sensor_type;location;lat;lon;timestamp;P1;durP1;ratioP1;P2;durP2;ratioP2
71166;SDS011;58864;45.928;20.078;2022-09-01T00:00:12;7.82;;;1.80;;
71166;SDS011;58864;45.928;20.078;2022-09-01T00:02:37;4.68;;;1.50;;
71166;SDS011;58864;45.928;20.078;2022-09-01T00:05:02;4.87;;;1.67;;
71166;SDS011;58864;45.928;20.078;2022-09-01T00:07:30;5.90;;;1.50;;
71166;SDS011;58864;45.928;20.078;2022-09-01T00:09:55;8.55;;;1.55;;
71166;SDS011;58864;45.928;20.078;2022-09-01T00:12:20;4.10;;;1.20;;
71166;SDS011;58864;45.928;20.078;2022-09-01T00:14:45;4.70;;;1.38;;
71166;SDS011;58864;45.928;20.078;2022-09-01T00:17:10;4.57;;;1.23;;
71166;SDS011;58864;45.928;20.078;2022-09-01T00:19:35;3.70;;;1.00;;
71166;SDS011;58864;45.928;20.078;2022-09-01T00:22:00;4.50;;;1.30;;
71166;SDS011;58864;45.928;20.078;2022-09-01T00:24:25;4.40;;;1.43;;
71166;SDS011;58864;45.928;20.078;2022-09-01T00:26:50;6.38;;;1.38;;
71166;SDS011;58864;45.928;20.078;2022-09-01T00:29:15;4.32;;;1.15;;
71166;SDS011;58864;45.928;20.078;2022-09-01T00:31:40;4.77;;;1.27;;
71166;SDS011;58864;45.928;20.078;2022-09-01T00:34:05;4.35;;;1.20;;
71166;SDS011;58864;45.928;20.078;2022-09-01T00:36:30;5.47;;;1.40;;
71166;SDS011;58864;45.928;20.078;2022-09-01T00:38:54;3.90;;;1.20;;
71166;SDS011;58864;45.928;20.078;2022-09-01T00:41:20;6.60;;;1.23;;
71166;SDS011;58864;45.928;20.078;2022-09-01T00:43:48;4.10;;;1.40;;
71166;SDS011;58864;45.928;20.078;2022-09-01T00:46:29;4.10;;;1.30;;
71166;SDS011;58864;45.928;20.078;2022-09-01T00:49:00;4.15;;;1.20;;
71166;SDS011;58864;45.928;20.078;2022-09-01T00:51:27;6.35;;;1.65;;
71166;SDS011;58864;45.928;20.078;2022-09-01T00:53:52;5.13;;;1.20;;
71166;SDS011;58864;45.928;20.078;2022-09-01T00:56:18;9.57;;;1.33;;
71166;SDS011;58864;45.928;20.078;2022-09-01T00:58:43;4.93;;;1.10;;
71166;SDS011;58864;45.928;20.078;2022-09-01T01:01:09;4.53;;;1.20;;
71166;SDS011;58864;45.928;20.078;2022-09-01T01:03:34;3.42;;;1.00;;
71166;SDS011;58864;45.928;20.078;2022-09-01T01:06:00;5.53;;;1.10;;
71166;SDS011;58864;45.928;20.078;2022-09-01T01:08:32;3.72;;;1.10;;
71166;SDS011;58864;45.928;20.078;2022-09-01T01:10:58;4.00;;;1.05;;
71166;SDS011;58864;45.928;20.078;2022-09-01T01:13:26;3.45;;;0.90;;
71166;SDS011;58864;45.928;20.078;2022-09-01T01:15:59;5.57;;;1.10;;
71166;SDS011;58864;45.928;20.078;2022-09-01T01:18:23;3.43;;;0.90;;
71166;SDS011;58864;45.928;20.078;2022-09-01T01:20:54;3.23;;;0.73;;
71166;SDS011;58864;45.928;20.078;2022-09-01T01:24:01;3.60;;;0.80;;
71166;SDS011;58864;45.928;20.078;2022-09-01T01:26:32;4.00;;;0.93;;
71166;SDS011;58864;45.928;20.078;2022-09-01T01:28:56;5.83;;;0.90;;
71166;SDS011;58864;45.928;20.078;2022-09-01T01:31:21;4.40;;;1.00;;
71166;SDS011;58864;45.928;20.078;2022-09-01T01:33:51;3.90;;;0.90;;
71166;SDS011;58864;45.928;20.078;2022-09-01T01:36:21;2.92;;;0.80;;
71166;SDS011;58864;45.928;20.078;2022-09-01T01:38:55;3.65;;;0.70;;
71166;SDS011;58864;45.928;20.078;2022-09-01T01:41:25;3.13;;;0.70;;
71166;SDS011;58864;45.928;20.078;2022-09-01T01:43:50;3.27;;;0.83;;
71166;SDS011;58864;45.928;20.078;2022-09-01T01:46:15;4.03;;;0.85;;
71166;SDS011;58864;45.928;20.078;2022-09-01T01:48:41;3.90;;;0.83;;
71166;SDS011;58864;45.928;20.078;2022-09-01T01:51:05;3.67;;;0.90;;
71166;SDS011;58864;45.928;20.078;2022-09-01T01:53:31;3.35;;;0.77;;
71166;SDS011;58864;45.928;20.078;2022-09-01T01:55:56;2.90;;;0.70;;
71166;SDS011;58864;45.928;20.078;2022-09-01T01:58:23;3.20;;;0.70;;
71166;SDS011;58864;45.928;20.078;2022-09-01T02:00:49;3.60;;;0.80;;
71166;SDS011;58864;45.928;20.078;2022-09-01T02:03:16;3.58;;;0.82;;
71166;SDS011;58864;45.928;20.078;2022-09-01T02:05:43;2.90;;;0.63;;
71166;SDS011;58864;45.928;20.078;2022-09-01T02:08:09;3.22;;;0.82;;
71166;SDS011;58864;45.928;20.078;2022-09-01T02:10:39;5.63;;;0.70;;
71166;SDS011;58864;45.928;20.078;2022-09-01T02:13:05;3.20;;;0.80;;
71166;SDS011;58864;45.928;20.078;2022-09-01T02:15:36;4.63;;;0.75;;
71166;SDS011;58864;45.928;20.078;2022-09-01T02:18:07;3.05;;;0.80;;
71166;SDS011;58864;45.928;20.078;2022-09-01T02:20:32;3.05;;;0.50;;
71166;SDS011;58864;45.928;20.078;2022-09-01T02:22:57;3.13;;;0.70;;
71166;SDS011;58864;45.928;20.078;2022-09-01T02:25:34;2.97;;;0.60;;
71166;SDS011;58864;45.928;20.078;2022-09-01T02:27:58;5.00;;;0.75;;
71166;SDS011;58864;45.928;20.078;2022-09-01T02:30:23;2.93;;;0.50;;
71166;SDS011;58864;45.928;20.078;2022-09-01T02:32:49;8.52;;;0.70;;
71166;SDS011;58864;45.928;20.078;2022-09-01T02:35:13;3.33;;;0.57;;
71166;SDS011;58864;45.928;20.078;2022-09-01T02:37:39;4.43;;;0.60;;
71166;SDS011;58864;45.928;20.078;2022-09-01T02:40:07;2.58;;;0.50;;
71166;SDS011;58864;45.928;20.078;2022-09-01T02:42:33;3.33;;;0.73;;
71166;SDS011;58864;45.928;20.078;2022-09-01T02:44:58;5.05;;;0.57;;
71166;SDS011;58864;45.928;20.078;2022-09-01T02:47:22;2.97;;;0.73;;
71166;SDS011;58864;45.928;20.078;2022-09-01T02:49:51;3.47;;;0.70;;
71166;SDS011;58864;45.928;20.078;2022-09-01T02:52:16;5.78;;;0.60;;
71166;SDS011;58864;45.928;20.078;2022-09-01T02:54:44;3.90;;;0.60;;
71166;SDS011;58864;45.928;20.078;2022-09-01T02:57:10;2.95;;;0.70;;
71166;SDS011;58864;45.928;20.078;2022-09-01T02:59:35;6.07;;;0.90;;
71166;SDS011;58864;45.928;20.078;2022-09-01T03:02:00;3.10;;;0.80;;
71166;SDS011;58864;45.928;20.078;2022-09-01T03:04:24;4.20;;;0.50;;
71166;SDS011;58864;45.928;20.078;2022-09-01T03:06:50;3.33;;;0.85;;
71166;SDS011;58864;45.928;20.078;2022-09-01T03:09:17;3.67;;;0.90;;
71166;SDS011;58864;45.928;20.078;2022-09-01T03:11:43;3.77;;;0.83;;
71166;SDS011;58864;45.928;20.078;2022-09-01T03:14:10;4.63;;;0.70;;
71166;SDS011;58864;45.928;20.078;2022-09-01T03:16:35;4.60;;;0.70;;
71166;SDS011;58864;45.928;20.078;2022-09-01T03:19:00;3.97;;;0.77;;
71166;SDS011;58864;45.928;20.078;2022-09-01T03:21:30;1.95;;;0.40;;
71166;SDS011;58864;45.928;20.078;2022-09-01T03:23:55;3.60;;;0.73;;
71166;SDS011;58864;45.928;20.078;2022-09-01T03:26:21;4.60;;;0.73;;
71166;SDS011;58864;45.928;20.078;2022-09-01T03:28:45;7.03;;;0.73;;
71166;SDS011;58864;45.928;20.078;2022-09-01T03:31:11;2.97;;;0.68;;
71166;SDS011;58864;45.928;20.078;2022-09-01T03:33:37;4.93;;;0.88;;
71166;SDS011;58864;45.928;20.078;2022-09-01T03:36:01;4.23;;;0.70;;
71166;SDS011;58864;45.928;20.078;2022-09-01T03:38:27;4.28;;;1.02;;
71166;SDS011;58864;45.928;20.078;2022-09-01T03:40:53;5.30;;;0.70;;
71166;SDS011;58864;45.928;20.078;2022-09-01T03:43:22;3.83;;;0.70;;
71166;SDS011;58864;45.928;20.078;2022-09-01T03:45:48;4.13;;;0.73;;
71166;SDS011;58864;45.928;20.078;2022-09-01T03:48:13;2.53;;;0.47;;
71166;SDS011;58864;45.928;20.078;2022-09-01T03:50:40;2.40;;;0.40;;
71166;SDS011;58864;45.928;20.078;2022-09-01T03:53:09;9.43;;;1.88;;
71166;SDS011;58864;45.928;20.078;2022-09-01T03:55:35;10.82;;;1.30;;
71166;SDS011;58864;45.928;20.078;2022-09-01T03:58:01;3.65;;;1.00;;
71166;SDS011;58864;45.928;20.078;2022-09-01T04:00:31;5.37;;;0.97;;
71166;SDS011;58864;45.928;20.078;2022-09-01T04:02:58;3.90;;;0.85;;
71166;SDS011;58864;45.928;20.078;2022-09-01T04:05:23;4.32;;;0.90;;
71166;SDS011;58864;45.928;20.078;2022-09-01T04:07:51;3.83;;;0.83;;
71166;SDS011;58864;45.928;20.078;2022-09-01T04:10:16;3.70;;;1.00;;
71166;SDS011;58864;45.928;20.078;2022-09-01T04:12:42;3.73;;;0.63;;
71166;SDS011;58864;45.928;20.078;2022-09-01T04:15:07;3.70;;;1.00;;
71166;SDS011;58864;45.928;20.078;2022-09-01T04:17:32;3.40;;;0.82;;
71166;SDS011;58864;45.928;20.078;2022-09-01T04:20:15;5.88;;;1.27;;
71166;SDS011;58864;45.928;20.078;2022-09-01T04:22:43;4.03;;;1.08;;
71166;SDS011;58864;45.928;20.078;2022-09-01T04:25:07;4.30;;;1.00;;
71166;SDS011;58864;45.928;20.078;2022-09-01T04:27:32;3.57;;;0.90;;
71166;SDS011;58864;45.928;20.078;2022-09-01T04:29:56;3.30;;;1.02;;
71166;SDS011;58864;45.928;20.078;2022-09-01T04:32:21;3.23;;;0.80;;
71166;SDS011;58864;45.928;20.078;2022-09-01T04:34:47;3.10;;;0.70;;
71166;SDS011;58864;45.928;20.078;2022-09-01T04:37:16;2.83;;;0.67;;
71166;SDS011;58864;45.928;20.078;2022-09-01T04:39:41;3.55;;;0.85;;
71166;SDS011;58864;45.928;20.078;2022-09-01T04:42:11;3.67;;;0.82;;
71166;SDS011;58864;45.928;20.078;2022-09-01T04:44:35;4.20;;;0.80;;
71166;SDS011;58864;45.928;20.078;2022-09-01T04:47:00;4.80;;;0.73;;
71166;SDS011;58864;45.928;20.078;2022-09-01T04:49:24;4.07;;;1.00;;
71166;SDS011;58864;45.928;20.078;2022-09-01T04:51:50;3.00;;;0.77;;
71166;SDS011;58864;45.928;20.078;2022-09-01T04:54:16;10.27;;;1.13;;
71166;SDS011;58864;45.928;20.078;2022-09-01T04:56:41;3.97;;;0.70;;
71166;SDS011;58864;45.928;20.078;2022-09-01T04:59:07;4.97;;;1.10;;
71166;SDS011;58864;45.928;20.078;2022-09-01T05:01:34;4.00;;;0.70;;
71166;SDS011;58864;45.928;20.078;2022-09-01T05:04:08;3.97;;;1.02;;
71166;SDS011;58864;45.928;20.078;2022-09-01T05:06:41;6.55;;;0.90;;
71166;SDS011;58864;45.928;20.078;2022-09-01T05:09:08;4.32;;;1.35;;
71166;SDS011;58864;45.928;20.078;2022-09-01T05:11:34;4.18;;;0.82;;
71166;SDS011;58864;45.928;20.078;2022-09-01T05:14:00;9.80;;;1.27;;
71166;SDS011;58864;45.928;20.078;2022-09-01T05:16:27;4.00;;;0.70;;
71166;SDS011;58864;45.928;20.078;2022-09-01T05:18:52;3.77;;;0.90;;
71166;SDS011;58864;45.928;20.078;2022-09-01T05:21:20;4.88;;;1.23;;
71166;SDS011;58864;45.928;20.078;2022-09-01T05:23:47;3.85;;;0.90;;
71166;SDS011;58864;45.928;20.078;2022-09-01T05:26:18;4.28;;;1.10;;
71166;SDS011;58864;45.928;20.078;2022-09-01T05:28:44;5.07;;;1.35;;
71166;SDS011;58864;45.928;20.078;2022-09-01T05:31:10;2.63;;;0.50;;
71166;SDS011;58864;45.928;20.078;2022-09-01T05:33:35;3.17;;;0.93;;
71166;SDS011;58864;45.928;20.078;2022-09-01T05:36:02;6.10;;;0.80;;
71166;SDS011;58864;45.928;20.078;2022-09-01T05:38:31;3.67;;;0.70;;
71166;SDS011;58864;45.928;20.078;2022-09-01T05:40:58;4.43;;;0.82;;
71166;SDS011;58864;45.928;20.078;2022-09-01T05:43:26;3.20;;;0.60;;
71166;SDS011;58864;45.928;20.078;2022-09-01T05:45:51;3.60;;;0.57;;
71166;SDS011;58864;45.928;20.078;2022-09-01T05:48:17;8.90;;;1.02;;
71166;SDS011;58864;45.928;20.078;2022-09-01T05:50:46;3.97;;;0.80;;
71166;SDS011;58864;45.928;20.078;2022-09-01T05:53:12;6.38;;;0.77;;
71166;SDS011;58864;45.928;20.078;2022-09-01T05:55:41;3.97;;;0.73;;
71166;SDS011;58864;45.928;20.078;2022-09-01T05:58:07;4.80;;;1.00;;
71166;SDS011;58864;45.928;20.078;2022-09-01T06:00:36;4.03;;;0.95;;
71166;SDS011;58864;45.928;20.078;2022-09-01T06:03:01;3.40;;;0.70;;
71166;SDS011;58864;45.928;20.078;2022-09-01T06:05:27;5.35;;;1.38;;
71166;SDS011;58864;45.928;20.078;2022-09-01T06:07:52;6.80;;;1.23;;
71166;SDS011;58864;45.928;20.078;2022-09-01T06:10:18;9.13;;;1.67;;
71166;SDS011;58864;45.928;20.078;2022-09-01T06:12:42;4.68;;;1.20;;
71166;SDS011;58864;45.928;20.078;2022-09-01T06:15:08;5.00;;;1.30;;
71166;SDS011;58864;45.928;20.078;2022-09-01T06:17:38;9.80;;;1.52;;
71166;SDS011;58864;45.928;20.078;2022-09-01T06:20:03;6.80;;;1.50;;
71166;SDS011;58864;45.928;20.078;2022-09-01T06:22:33;6.05;;;1.02;;
71166;SDS011;58864;45.928;20.078;2022-09-01T06:24:57;6.47;;;1.80;;
71166;SDS011;58864;45.928;20.078;2022-09-01T06:27:22;8.75;;;1.60;;
71166;SDS011;58864;45.928;20.078;2022-09-01T06:29:47;2.20;;;0.50;;
71166;SDS011;58864;45.928;20.078;2022-09-01T06:32:17;1.85;;;0.52;;
71166;SDS011;58864;45.928;20.078;2022-09-01T06:34:42;2.17;;;0.50;;
71166;SDS011;58864;45.928;20.078;2022-09-01T06:37:13;1.67;;;0.50;;
71166;SDS011;58864;45.928;20.078;2022-09-01T06:39:38;0.75;;;0.20;;
71166;SDS011;58864;45.928;20.078;2022-09-01T06:42:03;0.70;;;0.07;;
71166;SDS011;58864;45.928;20.078;2022-09-01T06:44:28;1.55;;;0.38;;
71166;SDS011;58864;45.928;20.078;2022-09-01T06:46:55;5.50;;;0.20;;
71166;SDS011;58864;45.928;20.078;2022-09-01T06:49:20;1.77;;;0.50;;
71166;SDS011;58864;45.928;20.078;2022-09-01T06:51:46;1.13;;;0.20;;
71166;SDS011;58864;45.928;20.078;2022-09-01T06:54:15;1.20;;;0.20;;
71166;SDS011;58864;45.928;20.078;2022-09-01T06:56:42;0.90;;;0.10;;
71166;SDS011;58864;45.928;20.078;2022-09-01T06:59:07;3.00;;;0.28;;
71166;SDS011;58864;45.928;20.078;2022-09-01T07:01:33;2.50;;;0.40;;
71166;SDS011;58864;45.928;20.078;2022-09-01T07:03:58;2.00;;;0.20;;
71166;SDS011;58864;45.928;20.078;2022-09-01T07:06:23;1.67;;;0.28;;
71166;SDS011;58864;45.928;20.078;2022-09-01T07:08:50;0.95;;;0.20;;
71166;SDS011;58864;45.928;20.078;2022-09-01T07:11:19;1.95;;;0.43;;
71166;SDS011;58864;45.928;20.078;2022-09-01T07:13:50;2.37;;;0.20;;
71166;SDS011;58864;45.928;20.078;2022-09-01T07:16:17;1.30;;;0.25;;
71166;SDS011;58864;45.928;20.078;2022-09-01T07:18:43;2.08;;;0.25;;
71166;SDS011;58864;45.928;20.078;2022-09-01T07:21:07;2.57;;;0.30;;
71166;SDS011;58864;45.928;20.078;2022-09-01T07:23:31;1.85;;;0.30;;
71166;SDS011;58864;45.928;20.078;2022-09-01T07:25:56;2.27;;;0.50;;
71166;SDS011;58864;45.928;20.078;2022-09-01T07:28:23;3.75;;;0.50;;
71166;SDS011;58864;45.928;20.078;2022-09-01T07:30:53;2.42;;;0.52;;
71166;SDS011;58864;45.928;20.078;2022-09-01T07:33:18;1.57;;;0.33;;
71166;SDS011;58864;45.928;20.078;2022-09-01T07:35:47;1.92;;;0.40;;
71166;SDS011;58864;45.928;20.078;2022-09-01T07:38:12;2.53;;;0.50;;
71166;SDS011;58864;45.928;20.078;2022-09-01T07:40:37;2.15;;;0.50;;
71166;SDS011;58864;45.928;20.078;2022-09-01T07:43:04;2.30;;;0.47;;
71166;SDS011;58864;45.928;20.078;2022-09-01T07:45:31;2.22;;;0.40;;
71166;SDS011;58864;45.928;20.078;2022-09-01T07:47:56;2.25;;;0.50;;
71166;SDS011;58864;45.928;20.078;2022-09-01T07:50:25;2.25;;;0.55;;
71166;SDS011;58864;45.928;20.078;2022-09-01T07:52:51;1.73;;;0.43;;
71166;SDS011;58864;45.928;20.078;2022-09-01T07:55:17;2.53;;;0.50;;
71166;SDS011;58864;45.928;20.078;2022-09-01T07:57:42;2.22;;;0.65;;
71166;SDS011;58864;45.928;20.078;2022-09-01T08:00:09;2.97;;;0.80;;
71166;SDS011;58864;45.928;20.078;2022-09-01T08:02:34;7.03;;;0.67;;
71166;SDS011;58864;45.928;20.078;2022-09-01T08:05:02;4.40;;;0.77;;
71166;SDS011;58864;45.928;20.078;2022-09-01T08:17:29;2.58;;;0.60;;
71166;SDS011;58864;45.928;20.078;2022-09-01T08:19:54;2.88;;;0.70;;
71166;SDS011;58864;45.928;20.078;2022-09-01T08:22:18;2.23;;;0.53;;
71166;SDS011;58864;45.928;20.078;2022-09-01T08:24:46;3.20;;;0.85;;
71166;SDS011;58864;45.928;20.078;2022-09-01T08:27:11;4.03;;;0.50;;
71166;SDS011;58864;45.928;20.078;2022-09-01T08:29:35;2.47;;;0.50;;
71166;SDS011;58864;45.928;20.078;2022-09-01T08:32:00;1.67;;;0.30;;
71166;SDS011;58864;45.928;20.078;2022-09-01T08:34:25;1.40;;;0.30;;
71166;SDS011;58864;45.928;20.078;2022-09-01T08:36:50;2.40;;;0.50;;
71166;SDS011;58864;45.928;20.078;2022-09-01T08:39:15;2.45;;;0.70;;
71166;SDS011;58864;45.928;20.078;2022-09-01T08:47:28;2.23;;;0.57;;
71166;SDS011;58864;45.928;20.078;2022-09-01T08:49:53;3.38;;;0.80;;
71166;SDS011;58864;45.928;20.078;2022-09-01T08:54:55;3.00;;;0.80;;
71166;SDS011;58864;45.928;20.078;2022-09-01T08:57:25;2.70;;;0.63;;
71166;SDS011;58864;45.928;20.078;2022-09-01T08:59:55;4.32;;;1.33;;
71166;SDS011;58864;45.928;20.078;2022-09-01T09:08:06;4.45;;;1.20;;
71166;SDS011;58864;45.928;20.078;2022-09-01T09:10:40;3.42;;;0.95;;
71166;SDS011;58864;45.928;20.078;2022-09-01T09:16:05;3.50;;;0.70;;
71166;SDS011;58864;45.928;20.078;2022-09-01T09:18:34;2.67;;;0.80;;
71166;SDS011;58864;45.928;20.078;2022-09-01T09:21:28;3.47;;;0.95;;
71166;SDS011;58864;45.928;20.078;2022-09-01T09:27:10;4.78;;;0.93;;
71166;SDS011;58864;45.928;20.078;2022-09-01T09:29:49;3.27;;;0.67;;
71166;SDS011;58864;45.928;20.078;2022-09-01T09:32:18;3.70;;;1.23;;
71166;SDS011;58864;45.928;20.078;2022-09-01T09:34:43;3.88;;;0.82;;
71166;SDS011;58864;45.928;20.078;2022-09-01T09:42:33;4.97;;;1.15;;
71166;SDS011;58864;45.928;20.078;2022-09-01T09:45:02;6.55;;;0.90;;
71166;SDS011;58864;45.928;20.078;2022-09-01T09:52:35;3.15;;;0.73;;
71166;SDS011;58864;45.928;20.078;2022-09-01T09:55:02;3.73;;;1.00;;
71166;SDS011;58864;45.928;20.078;2022-09-01T09:57:28;4.05;;;1.15;;
71166;SDS011;58864;45.928;20.078;2022-09-01T09:59:59;2.58;;;0.60;;
71166;SDS011;58864;45.928;20.078;2022-09-01T10:02:34;3.80;;;1.07;;
71166;SDS011;58864;45.928;20.078;2022-09-01T10:05:20;4.70;;;1.52;;
71166;SDS011;58864;45.928;20.078;2022-09-01T10:08:04;3.70;;;1.13;;
71166;SDS011;58864;45.928;20.078;2022-09-01T10:13:05;5.38;;;1.20;;
71166;SDS011;58864;45.928;20.078;2022-09-01T10:15:32;3.20;;;0.90;;
71166;SDS011;58864;45.928;20.078;2022-09-01T10:18:07;3.70;;;1.05;;
71166;SDS011;58864;45.928;20.078;2022-09-01T10:23:28;3.07;;;1.03;;
71166;SDS011;58864;45.928;20.078;2022-09-01T10:25:54;7.15;;;1.10;;
71166;SDS011;58864;45.928;20.078;2022-09-01T10:28:25;5.38;;;1.27;;
71166;SDS011;58864;45.928;20.078;2022-09-01T10:30:53;6.15;;;1.25;;
71166;SDS011;58864;45.928;20.078;2022-09-01T10:33:20;4.47;;;1.27;;
71166;SDS011;58864;45.928;20.078;2022-09-01T10:35:46;3.23;;;0.93;;
71166;SDS011;58864;45.928;20.078;2022-09-01T10:44:54;2.08;;;0.40;;
71166;SDS011;58864;45.928;20.078;2022-09-01T10:47:25;3.50;;;0.90;;
71166;SDS011;58864;45.928;20.078;2022-09-01T11:03:57;3.05;;;0.90;;
71166;SDS011;58864;45.928;20.078;2022-09-01T11:06:32;3.93;;;1.07;;
71166;SDS011;58864;45.928;20.078;2022-09-01T11:12:11;2.42;;;0.50;;
71166;SDS011;58864;45.928;20.078;2022-09-01T11:17:25;2.33;;;0.47;;
71166;SDS011;58864;45.928;20.078;2022-09-01T11:22:33;2.45;;;0.57;;
71166;SDS011;58864;45.928;20.078;2022-09-01T11:30:14;2.90;;;0.63;;
71166;SDS011;58864;45.928;20.078;2022-09-01T11:36:03;1.52;;;0.50;;
71166;SDS011;58864;45.928;20.078;2022-09-01T11:38:33;2.17;;;0.52;;
71166;SDS011;58864;45.928;20.078;2022-09-01T11:41:07;4.23;;;0.90;;
71166;SDS011;58864;45.928;20.078;2022-09-01T11:43:32;3.45;;;0.73;;
71166;SDS011;58864;45.928;20.078;2022-09-01T11:48:44;3.00;;;0.90;;
71166;SDS011;58864;45.928;20.078;2022-09-01T11:51:12;3.27;;;0.67;;
71166;SDS011;58864;45.928;20.078;2022-09-01T11:53:37;2.72;;;0.57;;
71166;SDS011;58864;45.928;20.078;2022-09-01T11:56:13;3.53;;;0.90;;
71166;SDS011;58864;45.928;20.078;2022-09-01T11:58:43;4.72;;;1.17;;
71166;SDS011;58864;45.928;20.078;2022-09-01T12:01:15;3.10;;;0.98;;
71166;SDS011;58864;45.928;20.078;2022-09-01T12:03:45;3.17;;;0.83;;
71166;SDS011;58864;45.928;20.078;2022-09-01T12:06:12;3.72;;;0.95;;
71166;SDS011;58864;45.928;20.078;2022-09-01T12:08:50;1.75;;;0.50;;
71166;SDS011;58864;45.928;20.078;2022-09-01T12:11:19;3.65;;;1.13;;
71166;SDS011;58864;45.928;20.078;2022-09-01T12:16:28;12.90;;;1.10;;
71166;SDS011;58864;45.928;20.078;2022-09-01T12:18:54;3.72;;;0.88;;
71166;SDS011;58864;45.928;20.078;2022-09-01T12:21:26;3.83;;;1.20;;
71166;SDS011;58864;45.928;20.078;2022-09-01T12:23:50;2.70;;;0.43;;
71166;SDS011;58864;45.928;20.078;2022-09-01T12:26:18;3.40;;;0.87;;
71166;SDS011;58864;45.928;20.078;2022-09-01T12:28:45;4.00;;;0.95;;
71166;SDS011;58864;45.928;20.078;2022-09-01T12:31:14;3.97;;;0.73;;
71166;SDS011;58864;45.928;20.078;2022-09-01T12:33:41;3.85;;;0.60;;
71166;SDS011;58864;45.928;20.078;2022-09-01T12:37:00;6.13;;;0.80;;
71166;SDS011;58864;45.928;20.078;2022-09-01T12:39:21;3.33;;;0.60;;
71166;SDS011;58864;45.928;20.078;2022-09-01T12:41:45;3.00;;;0.70;;
71166;SDS011;58864;45.928;20.078;2022-09-01T12:44:33;2.28;;;0.50;;
71166;SDS011;58864;45.928;20.078;2022-09-01T12:47:03;2.97;;;0.60;;
71166;SDS011;58864;45.928;20.078;2022-09-01T12:49:34;2.60;;;0.70;;
71166;SDS011;58864;45.928;20.078;2022-09-01T12:54:42;4.05;;;0.80;;
71166;SDS011;58864;45.928;20.078;2022-09-01T12:57:26;1.98;;;0.40;;
71166;SDS011;58864;45.928;20.078;2022-09-01T13:02:39;3.78;;;1.08;;
71166;SDS011;58864;45.928;20.078;2022-09-01T13:05:24;2.10;;;0.50;;
71166;SDS011;58864;45.928;20.078;2022-09-01T13:07:58;3.15;;;0.82;;
71166;SDS011;58864;45.928;20.078;2022-09-01T13:10:25;3.50;;;0.63;;
71166;SDS011;58864;45.928;20.078;2022-09-01T13:12:51;4.20;;;0.90;;
71166;SDS011;58864;45.928;20.078;2022-09-01T13:15:16;4.60;;;1.13;;
71166;SDS011;58864;45.928;20.078;2022-09-01T13:17:41;2.80;;;0.70;;
71166;SDS011;58864;45.928;20.078;2022-09-01T13:20:07;4.80;;;0.95;;
71166;SDS011;58864;45.928;20.078;2022-09-01T13:22:32;3.38;;;0.70;;
71166;SDS011;58864;45.928;20.078;2022-09-01T13:24:58;4.80;;;0.70;;
71166;SDS011;58864;45.928;20.078;2022-09-01T13:27:23;2.95;;;0.80;;
71166;SDS011;58864;45.928;20.078;2022-09-01T13:29:47;2.80;;;0.53;;
71166;SDS011;58864;45.928;20.078;2022-09-01T13:32:13;4.75;;;1.00;;
71166;SDS011;58864;45.928;20.078;2022-09-01T13:34:38;3.03;;;0.70;;
71166;SDS011;58864;45.928;20.078;2022-09-01T13:37:03;3.42;;;0.60;;
71166;SDS011;58864;45.928;20.078;2022-09-01T13:39:28;2.20;;;0.60;;
71166;SDS011;58864;45.928;20.078;2022-09-01T13:41:52;2.67;;;0.60;;
71166;SDS011;58864;45.928;20.078;2022-09-01T13:44:17;3.37;;;0.80;;
71166;SDS011;58864;45.928;20.078;2022-09-01T13:46:41;3.53;;;0.97;;
71166;SDS011;58864;45.928;20.078;2022-09-01T13:49:06;4.05;;;0.82;;
71166;SDS011;58864;45.928;20.078;2022-09-01T13:51:31;3.13;;;0.60;;
71166;SDS011;58864;45.928;20.078;2022-09-01T13:53:55;3.50;;;0.80;;
71166;SDS011;58864;45.928;20.078;2022-09-01T13:56:19;3.63;;;0.70;;
71166;SDS011;58864;45.928;20.078;2022-09-01T13:58:44;2.90;;;0.80;;
71166;SDS011;58864;45.928;20.078;2022-09-01T14:01:08;2.33;;;0.60;;
71166;SDS011;58864;45.928;20.078;2022-09-01T14:03:32;2.67;;;0.70;;
71166;SDS011;58864;45.928;20.078;2022-09-01T14:05:57;3.72;;;0.82;;
71166;SDS011;58864;45.928;20.078;2022-09-01T14:08:21;2.73;;;0.60;;
71166;SDS011;58864;45.928;20.078;2022-09-01T14:10:46;2.10;;;0.50;;
71166;SDS011;58864;45.928;20.078;2022-09-01T14:13:13;3.13;;;0.70;;
71166;SDS011;58864;45.928;20.078;2022-09-01T14:15:38;3.13;;;0.68;;
71166;SDS011;58864;45.928;20.078;2022-09-01T14:18:03;2.70;;;0.80;;
71166;SDS011;58864;45.928;20.078;2022-09-01T14:20:30;4.10;;;0.57;;
71166;SDS011;58864;45.928;20.078;2022-09-01T14:23:02;5.18;;;0.80;;
71166;SDS011;58864;45.928;20.078;2022-09-01T14:25:27;2.90;;;0.70;;
71166;SDS011;58864;45.928;20.078;2022-09-01T14:27:52;4.63;;;1.25;;
71166;SDS011;58864;45.928;20.078;2022-09-01T14:30:20;2.53;;;0.60;;
71166;SDS011;58864;45.928;20.078;2022-09-01T14:32:46;2.75;;;0.77;;
71166;SDS011;58864;45.928;20.078;2022-09-01T14:35:11;2.63;;;0.60;;
71166;SDS011;58864;45.928;20.078;2022-09-01T14:37:36;2.58;;;0.50;;
71166;SDS011;58864;45.928;20.078;2022-09-01T14:40:01;2.88;;;0.55;;
71166;SDS011;58864;45.928;20.078;2022-09-01T14:42:27;2.70;;;0.67;;
71166;SDS011;58864;45.928;20.078;2022-09-01T14:44:52;2.35;;;0.55;;
71166;SDS011;58864;45.928;20.078;2022-09-01T14:47:17;2.17;;;0.50;;
71166;SDS011;58864;45.928;20.078;2022-09-01T14:49:42;3.50;;;0.80;;
71166;SDS011;58864;45.928;20.078;2022-09-01T14:52:07;3.10;;;0.73;;
71166;SDS011;58864;45.928;20.078;2022-09-01T14:54:33;2.75;;;0.60;;
71166;SDS011;58864;45.928;20.078;2022-09-01T14:56:58;2.50;;;0.50;;
71166;SDS011;58864;45.928;20.078;2022-09-01T14:59:23;3.00;;;0.57;;
71166;SDS011;58864;45.928;20.078;2022-09-01T15:01:47;3.50;;;0.60;;
71166;SDS011;58864;45.928;20.078;2022-09-01T15:04:12;2.67;;;0.60;;
71166;SDS011;58864;45.928;20.078;2022-09-01T15:06:36;2.87;;;0.60;;
71166;SDS011;58864;45.928;20.078;2022-09-01T15:09:01;2.93;;;0.70;;
71166;SDS011;58864;45.928;20.078;2022-09-01T15:11:26;3.30;;;0.75;;
71166;SDS011;58864;45.928;20.078;2022-09-01T15:13:51;2.92;;;0.60;;
71166;SDS011;58864;45.928;20.078;2022-09-01T15:16:17;2.23;;;0.43;;
71166;SDS011;58864;45.928;20.078;2022-09-01T15:18:44;4.32;;;1.00;;
71166;SDS011;58864;45.928;20.078;2022-09-01T15:21:23;3.63;;;0.70;;
71166;SDS011;58864;45.928;20.078;2022-09-01T15:23:49;2.93;;;0.60;;
71166;SDS011;58864;45.928;20.078;2022-09-01T15:26:14;3.13;;;0.55;;
71166;SDS011;58864;45.928;20.078;2022-09-01T15:28:39;2.65;;;0.70;;
71166;SDS011;58864;45.928;20.078;2022-09-01T15:31:04;4.03;;;0.63;;
71166;SDS011;58864;45.928;20.078;2022-09-01T15:33:29;3.13;;;0.80;;
71166;SDS011;58864;45.928;20.078;2022-09-01T15:35:54;3.07;;;0.80;;
71166;SDS011;58864;45.928;20.078;2022-09-01T15:38:18;3.43;;;0.80;;
71166;SDS011;58864;45.928;20.078;2022-09-01T15:40:43;2.87;;;0.67;;
71166;SDS011;58864;45.928;20.078;2022-09-01T15:43:08;4.57;;;1.17;;
71166;SDS011;58864;45.928;20.078;2022-09-01T15:45:33;3.45;;;0.73;;
71166;SDS011;58864;45.928;20.078;2022-09-01T15:47:57;3.03;;;0.70;;
71166;SDS011;58864;45.928;20.078;2022-09-01T15:50:23;2.67;;;0.65;;
71166;SDS011;58864;45.928;20.078;2022-09-01T15:55:22;3.13;;;0.80;;
71166;SDS011;58864;45.928;20.078;2022-09-01T15:57:49;2.90;;;0.80;;
71166;SDS011;58864;45.928;20.078;2022-09-01T16:00:15;2.80;;;0.80;;
71166;SDS011;58864;45.928;20.078;2022-09-01T16:02:40;3.15;;;0.88;;
71166;SDS011;58864;45.928;20.078;2022-09-01T16:05:05;4.07;;;0.93;;
71166;SDS011;58864;45.928;20.078;2022-09-01T16:07:30;4.25;;;0.98;;
71166;SDS011;58864;45.928;20.078;2022-09-01T16:09:54;3.23;;;0.70;;